sensor_id;sensor_type;location;lat;lon;timestamp;P1;durP1;ratioP1;P2;durP2;ratioP2
17382;SDS011;8809;51.892;8.384;2023-04-24T00:01:37;2.53;;;0.52;;
17382;SDS011;8809;51.892;8.384;2023-04-24T00:04:04;0.50;;;0.50;;
17382;SDS011;8809;51.892;8.384;2023-04-24T00:06:32;0.82;;;0.73;;
17382;SDS011;8809;51.892;8.384;2023-04-24T00:08:59;0.68;;;0.60;;
17382;SDS011;8809;51.892;8.384;2023-04-24T00:11:27;1.30;;;0.90;;
17382;SDS011;8809;51.892;8.384;2023-04-24T00:13:54;1.83;;;1.00;;
17382;SDS011;8809;51.892;8.384;2023-04-24T00:16:23;0.82;;;0.82;;
17382;SDS011;8809;51.892;8.384;2023-04-24T00:18:50;2.03;;;0.75;;
17382;SDS011;8809;51.892;8.384;2023-04-24T00:21:17;1.02;;;0.75;;
17382;SDS011;8809;51.892;8.384;2023-04-24T00:23:44;0.70;;;0.70;;
17382;SDS011;8809;51.892;8.384;2023-04-24T00:26:11;1.48;;;1.23;;
17382;SDS011;8809;51.892;8.384;2023-04-24T00:28:38;1.00;;;0.85;;
17382;SDS011;8809;51.892;8.384;2023-04-24T00:31:05;1.10;;;0.80;;
17382;SDS011;8809;51.892;8.384;2023-04-24T00:33:33;1.58;;;0.80;;
17382;SDS011;8809;51.892;8.384;2023-04-24T00:36:00;1.15;;;0.80;;
17382;SDS011;8809;51.892;8.384;2023-04-24T00:38:27;0.90;;;0.90;;
17382;SDS011;8809;51.892;8.384;2023-04-24T00:40:54;1.17;;;0.80;;
17382;SDS011;8809;51.892;8.384;2023-04-24T00:43:21;1.50;;;0.82;;
17382;SDS011;8809;51.892;8.384;2023-04-24T00:45:48;1.05;;;0.88;;
17382;SDS011;8809;51.892;8.384;2023-04-24T00:48:14;0.73;;;0.73;;
17382;SDS011;8809;51.892;8.384;2023-04-24T00:50:44;0.82;;;0.73;;
17382;SDS011;8809;51.892;8.384;2023-04-24T00:53:11;1.10;;;0.88;;
17382;SDS011;8809;51.892;8.384;2023-04-24T00:55:38;0.70;;;0.70;;
17382;SDS011;8809;51.892;8.384;2023-04-24T00:58:06;1.25;;;0.90;;
17382;SDS011;8809;51.892;8.384;2023-04-24T01:00:33;0.85;;;0.85;;
17382;SDS011;8809;51.892;8.384;2023-04-24T01:03:00;2.15;;;0.90;;
17382;SDS011;8809;51.892;8.384;2023-04-24T01:05:31;1.10;;;0.80;;
17382;SDS011;8809;51.892;8.384;2023-04-24T01:08:00;0.90;;;0.75;;
17382;SDS011;8809;51.892;8.384;2023-04-24T01:10:28;1.60;;;0.90;;
17382;SDS011;8809;51.892;8.384;2023-04-24T01:12:59;0.90;;;0.80;;
17382;SDS011;8809;51.892;8.384;2023-04-24T01:15:26;1.98;;;0.88;;
17382;SDS011;8809;51.892;8.384;2023-04-24T01:17:53;0.73;;;0.70;;
17382;SDS011;8809;51.892;8.384;2023-04-24T01:20:19;0.90;;;0.80;;
17382;SDS011;8809;51.892;8.384;2023-04-24T01:22:48;0.80;;;0.70;;
17382;SDS011;8809;51.892;8.384;2023-04-24T01:25:15;1.67;;;0.70;;
17382;SDS011;8809;51.892;8.384;2023-04-24T01:27:42;0.73;;;0.63;;
17382;SDS011;8809;51.892;8.384;2023-04-24T01:30:10;0.82;;;0.70;;
17382;SDS011;8809;51.892;8.384;2023-04-24T01:32:40;1.17;;;0.82;;
17382;SDS011;8809;51.892;8.384;2023-04-24T01:35:09;1.35;;;0.80;;
17382;SDS011;8809;51.892;8.384;2023-04-24T01:37:36;1.38;;;0.90;;
17382;SDS011;8809;51.892;8.384;2023-04-24T01:40:08;0.80;;;0.80;;
17382;SDS011;8809;51.892;8.384;2023-04-24T01:42:36;0.85;;;0.80;;
17382;SDS011;8809;51.892;8.384;2023-04-24T01:45:03;0.90;;;0.80;;
17382;SDS011;8809;51.892;8.384;2023-04-24T01:47:31;1.42;;;1.02;;
17382;SDS011;8809;51.892;8.384;2023-04-24T01:49:58;3.05;;;1.15;;
17382;SDS011;8809;51.892;8.384;2023-04-24T01:52:25;1.10;;;0.80;;
17382;SDS011;8809;51.892;8.384;2023-04-24T01:54:54;1.33;;;0.90;;
17382;SDS011;8809;51.892;8.384;2023-04-24T01:57:22;1.23;;;1.00;;
17382;SDS011;8809;51.892;8.384;2023-04-24T01:59:50;1.17;;;1.05;;
17382;SDS011;8809;51.892;8.384;2023-04-24T02:02:17;0.80;;;0.80;;
17382;SDS011;8809;51.892;8.384;2023-04-24T02:04:46;1.20;;;1.10;;
17382;SDS011;8809;51.892;8.384;2023-04-24T02:07:13;1.02;;;0.88;;
17382;SDS011;8809;51.892;8.384;2023-04-24T02:09:40;1.05;;;0.95;;
17382;SDS011;8809;51.892;8.384;2023-04-24T02:12:07;0.93;;;0.90;;
17382;SDS011;8809;51.892;8.384;2023-04-24T02:14:35;1.30;;;1.08;;
17382;SDS011;8809;51.892;8.384;2023-04-24T02:17:02;0.90;;;0.80;;
17382;SDS011;8809;51.892;8.384;2023-04-24T02:19:30;1.15;;;1.05;;
17382;SDS011;8809;51.892;8.384;2023-04-24T02:21:57;1.15;;;0.98;;
17382;SDS011;8809;51.892;8.384;2023-04-24T02:24:24;1.85;;;1.25;;
17382;SDS011;8809;51.892;8.384;2023-04-24T02:26:51;1.15;;;1.00;;
17382;SDS011;8809;51.892;8.384;2023-04-24T02:44:55;0.75;;;0.70;;
17382;SDS011;8809;51.892;8.384;2023-04-24T02:47:22;1.30;;;0.90;;
17382;SDS011;8809;51.892;8.384;2023-04-24T02:49:50;0.80;;;0.80;;
17382;SDS011;8809;51.892;8.384;2023-04-24T02:52:17;0.70;;;0.70;;
17382;SDS011;8809;51.892;8.384;2023-04-24T02:54:44;0.60;;;0.60;;
17382;SDS011;8809;51.892;8.384;2023-04-24T02:57:11;0.60;;;0.60;;
17382;SDS011;8809;51.892;8.384;2023-04-24T02:59:39;0.80;;;0.80;;
17382;SDS011;8809;51.892;8.384;2023-04-24T03:02:07;0.85;;;0.60;;
17382;SDS011;8809;51.892;8.384;2023-04-24T03:04:34;0.70;;;0.70;;
17382;SDS011;8809;51.892;8.384;2023-04-24T03:07:01;0.60;;;0.60;;
17382;SDS011;8809;51.892;8.384;2023-04-24T03:09:29;0.88;;;0.88;;
17382;SDS011;8809;51.892;8.384;2023-04-24T03:11:56;1.23;;;0.90;;
17382;SDS011;8809;51.892;8.384;2023-04-24T03:14:23;1.00;;;0.90;;
17382;SDS011;8809;51.892;8.384;2023-04-24T03:16:50;1.20;;;1.10;;
17382;SDS011;8809;51.892;8.384;2023-04-24T03:19:19;1.42;;;1.27;;
17382;SDS011;8809;51.892;8.384;2023-04-24T03:21:46;1.20;;;1.10;;
17382;SDS011;8809;51.892;8.384;2023-04-24T03:24:13;1.23;;;1.10;;
17382;SDS011;8809;51.892;8.384;2023-04-24T03:26:40;1.63;;;1.23;;
17382;SDS011;8809;51.892;8.384;2023-04-24T03:29:07;1.58;;;1.20;;
17382;SDS011;8809;51.892;8.384;2023-04-24T03:31:34;1.95;;;1.10;;
17382;SDS011;8809;51.892;8.384;2023-04-24T03:34:01;1.23;;;1.10;;
17382;SDS011;8809;51.892;8.384;2023-04-24T03:36:30;1.50;;;1.20;;
17382;SDS011;8809;51.892;8.384;2023-04-24T03:38:57;1.20;;;1.10;;
17382;SDS011;8809;51.892;8.384;2023-04-24T03:41:25;1.33;;;1.23;;
17382;SDS011;8809;51.892;8.384;2023-04-24T03:43:52;2.25;;;1.75;;
17382;SDS011;8809;51.892;8.384;2023-04-24T03:46:19;1.63;;;1.42;;
17382;SDS011;8809;51.892;8.384;2023-04-24T03:48:46;1.98;;;1.50;;
17382;SDS011;8809;51.892;8.384;2023-04-24T03:51:13;1.40;;;1.30;;
17382;SDS011;8809;51.892;8.384;2023-04-24T03:53:41;3.78;;;1.77;;
17382;SDS011;8809;51.892;8.384;2023-04-24T03:56:08;2.88;;;1.75;;
17382;SDS011;8809;51.892;8.384;2023-04-24T03:58:36;1.92;;;1.55;;
17382;SDS011;8809;51.892;8.384;2023-04-24T04:01:03;3.00;;;1.85;;
17382;SDS011;8809;51.892;8.384;2023-04-24T04:03:32;1.67;;;1.52;;
17382;SDS011;8809;51.892;8.384;2023-04-24T04:05:59;2.47;;;1.80;;
17382;SDS011;8809;51.892;8.384;2023-04-24T04:08:26;2.75;;;1.40;;
17382;SDS011;8809;51.892;8.384;2023-04-24T04:10:54;3.78;;;1.73;;
17382;SDS011;8809;51.892;8.384;2023-04-24T04:13:22;2.30;;;1.30;;
17382;SDS011;8809;51.892;8.384;2023-04-24T04:15:49;1.63;;;1.52;;
17382;SDS011;8809;51.892;8.384;2023-04-24T04:18:16;1.67;;;1.42;;
17382;SDS011;8809;51.892;8.384;2023-04-24T04:20:43;3.05;;;1.60;;
17382;SDS011;8809;51.892;8.384;2023-04-24T04:23:10;2.20;;;1.40;;
17382;SDS011;8809;51.892;8.384;2023-04-24T04:25:37;3.17;;;1.58;;
17382;SDS011;8809;51.892;8.384;2023-04-24T04:28:05;2.13;;;1.58;;
17382;SDS011;8809;51.892;8.384;2023-04-24T04:30:32;1.60;;;1.50;;
17382;SDS011;8809;51.892;8.384;2023-04-24T04:33:00;1.75;;;1.58;;
17382;SDS011;8809;51.892;8.384;2023-04-24T04:35:28;2.05;;;1.80;;
17382;SDS011;8809;51.892;8.384;2023-04-24T04:37:55;4.65;;;1.90;;
17382;SDS011;8809;51.892;8.384;2023-04-24T04:40:25;2.60;;;1.70;;
17382;SDS011;8809;51.892;8.384;2023-04-24T04:42:54;3.92;;;3.22;;
17382;SDS011;8809;51.892;8.384;2023-04-24T04:45:22;4.13;;;3.72;;
17382;SDS011;8809;51.892;8.384;2023-04-24T04:47:49;7.88;;;5.10;;
17382;SDS011;8809;51.892;8.384;2023-04-24T04:50:16;7.10;;;6.00;;
17382;SDS011;8809;51.892;8.384;2023-04-24T04:52:44;8.45;;;5.72;;
17382;SDS011;8809;51.892;8.384;2023-04-24T04:55:11;9.25;;;6.72;;
17382;SDS011;8809;51.892;8.384;2023-04-24T04:57:40;9.52;;;6.90;;
17382;SDS011;8809;51.892;8.384;2023-04-24T05:00:07;7.90;;;6.47;;
17382;SDS011;8809;51.892;8.384;2023-04-24T05:02:38;8.57;;;6.60;;
17382;SDS011;8809;51.892;8.384;2023-04-24T05:05:05;8.82;;;7.13;;
17382;SDS011;8809;51.892;8.384;2023-04-24T05:07:33;8.55;;;7.10;;
17382;SDS011;8809;51.892;8.384;2023-04-24T05:10:01;8.25;;;7.15;;
17382;SDS011;8809;51.892;8.384;2023-04-24T05:12:32;9.38;;;7.28;;
17382;SDS011;8809;51.892;8.384;2023-04-24T05:14:59;11.43;;;8.32;;
17382;SDS011;8809;51.892;8.384;2023-04-24T05:17:26;12.75;;;8.70;;
17382;SDS011;8809;51.892;8.384;2023-04-24T05:19:54;11.32;;;8.65;;
17382;SDS011;8809;51.892;8.384;2023-04-24T05:22:21;12.73;;;8.75;;
17382;SDS011;8809;51.892;8.384;2023-04-24T05:24:49;13.45;;;8.93;;
17382;SDS011;8809;51.892;8.384;2023-04-24T05:27:16;11.57;;;8.60;;
17382;SDS011;8809;51.892;8.384;2023-04-24T05:29:43;14.55;;;10.10;;
17382;SDS011;8809;51.892;8.384;2023-04-24T05:32:10;16.10;;;9.48;;
17382;SDS011;8809;51.892;8.384;2023-04-24T05:34:37;12.13;;;9.90;;
17382;SDS011;8809;51.892;8.384;2023-04-24T05:37:05;14.63;;;11.32;;
17382;SDS011;8809;51.892;8.384;2023-04-24T05:39:33;17.40;;;11.07;;
17382;SDS011;8809;51.892;8.384;2023-04-24T05:42:01;14.73;;;10.60;;
17382;SDS011;8809;51.892;8.384;2023-04-24T05:44:29;12.90;;;10.50;;
17382;SDS011;8809;51.892;8.384;2023-04-24T05:46:57;13.57;;;10.20;;
17382;SDS011;8809;51.892;8.384;2023-04-24T05:49:24;15.25;;;10.70;;
17382;SDS011;8809;51.892;8.384;2023-04-24T05:51:51;13.43;;;10.35;;
17382;SDS011;8809;51.892;8.384;2023-04-24T05:54:20;15.80;;;11.63;;
17382;SDS011;8809;51.892;8.384;2023-04-24T05:56:47;13.77;;;10.40;;
17382;SDS011;8809;51.892;8.384;2023-04-24T05:59:15;13.98;;;10.95;;
17382;SDS011;8809;51.892;8.384;2023-04-24T06:01:42;14.80;;;10.55;;
17382;SDS011;8809;51.892;8.384;2023-04-24T06:04:10;14.27;;;10.57;;
17382;SDS011;8809;51.892;8.384;2023-04-24T06:06:38;14.73;;;10.85;;
17382;SDS011;8809;51.892;8.384;2023-04-24T06:09:05;15.07;;;10.68;;
17382;SDS011;8809;51.892;8.384;2023-04-24T06:11:37;13.50;;;10.55;;
17382;SDS011;8809;51.892;8.384;2023-04-24T06:14:04;15.75;;;11.13;;
17382;SDS011;8809;51.892;8.384;2023-04-24T06:16:31;12.10;;;9.82;;
17382;SDS011;8809;51.892;8.384;2023-04-24T06:18:58;13.73;;;10.48;;
17382;SDS011;8809;51.892;8.384;2023-04-24T06:21:25;15.82;;;10.38;;
17382;SDS011;8809;51.892;8.384;2023-04-24T06:23:53;15.38;;;10.25;;
17382;SDS011;8809;51.892;8.384;2023-04-24T06:26:21;13.52;;;10.95;;
17382;SDS011;8809;51.892;8.384;2023-04-24T06:28:51;13.63;;;9.93;;
17382;SDS011;8809;51.892;8.384;2023-04-24T06:31:19;11.98;;;9.63;;
17382;SDS011;8809;51.892;8.384;2023-04-24T06:33:48;15.15;;;11.23;;
17382;SDS011;8809;51.892;8.384;2023-04-24T06:36:15;12.27;;;9.27;;
17382;SDS011;8809;51.892;8.384;2023-04-24T06:38:43;13.40;;;9.60;;
17382;SDS011;8809;51.892;8.384;2023-04-24T06:41:12;15.52;;;11.00;;
17382;SDS011;8809;51.892;8.384;2023-04-24T06:43:40;14.30;;;10.10;;
17382;SDS011;8809;51.892;8.384;2023-04-24T06:46:10;13.85;;;10.38;;
17382;SDS011;8809;51.892;8.384;2023-04-24T06:48:38;16.67;;;11.05;;
17382;SDS011;8809;51.892;8.384;2023-04-24T06:51:06;14.27;;;10.20;;
17382;SDS011;8809;51.892;8.384;2023-04-24T06:53:33;13.48;;;10.80;;
17382;SDS011;8809;51.892;8.384;2023-04-24T06:56:00;16.30;;;9.73;;
17382;SDS011;8809;51.892;8.384;2023-04-24T06:58:27;11.55;;;9.63;;
17382;SDS011;8809;51.892;8.384;2023-04-24T07:00:55;13.30;;;9.25;;
17382;SDS011;8809;51.892;8.384;2023-04-24T07:03:32;11.55;;;9.57;;
17382;SDS011;8809;51.892;8.384;2023-04-24T07:06:00;12.25;;;9.40;;
17382;SDS011;8809;51.892;8.384;2023-04-24T07:08:29;14.25;;;10.82;;
17382;SDS011;8809;51.892;8.384;2023-04-24T07:10:57;12.43;;;9.95;;
17382;SDS011;8809;51.892;8.384;2023-04-24T07:13:42;11.07;;;9.18;;
17382;SDS011;8809;51.892;8.384;2023-04-24T07:16:09;11.35;;;8.38;;
17382;SDS011;8809;51.892;8.384;2023-04-24T07:18:38;11.88;;;8.20;;
17382;SDS011;8809;51.892;8.384;2023-04-24T07:21:07;10.50;;;7.70;;
17382;SDS011;8809;51.892;8.384;2023-04-24T07:23:35;9.07;;;6.97;;
17382;SDS011;8809;51.892;8.384;2023-04-24T07:26:02;8.52;;;7.18;;
17382;SDS011;8809;51.892;8.384;2023-04-24T07:28:31;8.23;;;6.45;;
17382;SDS011;8809;51.892;8.384;2023-04-24T07:30:58;9.65;;;6.82;;
17382;SDS011;8809;51.892;8.384;2023-04-24T07:33:25;8.40;;;6.68;;
17382;SDS011;8809;51.892;8.384;2023-04-24T07:35:53;7.88;;;6.20;;
17382;SDS011;8809;51.892;8.384;2023-04-24T07:38:21;7.93;;;6.32;;
17382;SDS011;8809;51.892;8.384;2023-04-24T07:40:51;8.05;;;6.13;;
17382;SDS011;8809;51.892;8.384;2023-04-24T07:43:19;7.72;;;6.93;;
17382;SDS011;8809;51.892;8.384;2023-04-24T07:45:47;7.03;;;6.28;;
17382;SDS011;8809;51.892;8.384;2023-04-24T07:48:14;6.53;;;5.15;;
17382;SDS011;8809;51.892;8.384;2023-04-24T07:50:43;6.78;;;5.80;;
17382;SDS011;8809;51.892;8.384;2023-04-24T07:53:12;7.63;;;5.72;;
17382;SDS011;8809;51.892;8.384;2023-04-24T07:55:40;7.80;;;5.97;;
17382;SDS011;8809;51.892;8.384;2023-04-24T07:58:07;7.13;;;5.88;;
17382;SDS011;8809;51.892;8.384;2023-04-24T08:00:34;8.73;;;5.85;;
17382;SDS011;8809;51.892;8.384;2023-04-24T08:03:02;8.02;;;5.05;;
17382;SDS011;8809;51.892;8.384;2023-04-24T08:05:29;5.50;;;5.00;;
17382;SDS011;8809;51.892;8.384;2023-04-24T08:07:56;4.97;;;4.47;;
17382;SDS011;8809;51.892;8.384;2023-04-24T08:10:25;7.05;;;5.18;;
17382;SDS011;8809;51.892;8.384;2023-04-24T08:12:52;5.13;;;4.53;;
17382;SDS011;8809;51.892;8.384;2023-04-24T08:15:20;4.70;;;4.00;;
17382;SDS011;8809;51.892;8.384;2023-04-24T08:17:48;4.15;;;3.58;;
17382;SDS011;8809;51.892;8.384;2023-04-24T08:20:16;4.25;;;3.85;;
17382;SDS011;8809;51.892;8.384;2023-04-24T08:22:43;3.78;;;3.35;;
17382;SDS011;8809;51.892;8.384;2023-04-24T08:25:12;3.65;;;3.25;;
17382;SDS011;8809;51.892;8.384;2023-04-24T08:27:41;3.97;;;3.10;;
17382;SDS011;8809;51.892;8.384;2023-04-24T08:30:09;3.60;;;3.13;;
17382;SDS011;8809;51.892;8.384;2023-04-24T08:32:37;4.50;;;3.03;;
17382;SDS011;8809;51.892;8.384;2023-04-24T08:35:05;3.42;;;3.13;;
17382;SDS011;8809;51.892;8.384;2023-04-24T08:37:34;2.97;;;2.78;;
17382;SDS011;8809;51.892;8.384;2023-04-24T08:40:06;3.20;;;2.90;;
17382;SDS011;8809;51.892;8.384;2023-04-24T08:42:42;2.75;;;2.53;;
17382;SDS011;8809;51.892;8.384;2023-04-24T08:45:11;3.10;;;2.80;;
17382;SDS011;8809;51.892;8.384;2023-04-24T08:47:39;3.33;;;3.03;;
17382;SDS011;8809;51.892;8.384;2023-04-24T08:50:09;4.15;;;2.80;;
17382;SDS011;8809;51.892;8.384;2023-04-24T08:52:37;5.13;;;2.80;;
17382;SDS011;8809;51.892;8.384;2023-04-24T08:55:05;3.10;;;2.80;;
17382;SDS011;8809;51.892;8.384;2023-04-24T08:57:33;2.92;;;2.70;;
17382;SDS011;8809;51.892;8.384;2023-04-24T09:00:06;2.60;;;2.40;;
17382;SDS011;8809;51.892;8.384;2023-04-24T09:02:34;3.05;;;2.60;;
17382;SDS011;8809;51.892;8.384;2023-04-24T09:05:04;3.30;;;2.40;;
17382;SDS011;8809;51.892;8.384;2023-04-24T09:07:33;2.63;;;2.33;;
17382;SDS011;8809;51.892;8.384;2023-04-24T09:10:04;3.22;;;2.67;;
17382;SDS011;8809;51.892;8.384;2023-04-24T09:12:34;2.60;;;2.35;;
17382;SDS011;8809;51.892;8.384;2023-04-24T09:15:07;2.20;;;2.00;;
17382;SDS011;8809;51.892;8.384;2023-04-24T09:17:35;2.45;;;1.77;;
17382;SDS011;8809;51.892;8.384;2023-04-24T09:20:07;2.83;;;2.38;;
17382;SDS011;8809;51.892;8.384;2023-04-24T09:22:34;2.38;;;2.10;;
17382;SDS011;8809;51.892;8.384;2023-04-24T09:25:03;2.00;;;1.85;;
17382;SDS011;8809;51.892;8.384;2023-04-24T09:27:32;1.63;;;1.52;;
17382;SDS011;8809;51.892;8.384;2023-04-24T09:29:59;2.03;;;1.83;;
17382;SDS011;8809;51.892;8.384;2023-04-24T09:32:34;2.05;;;1.83;;
17382;SDS011;8809;51.892;8.384;2023-04-24T09:35:05;3.35;;;1.88;;
17382;SDS011;8809;51.892;8.384;2023-04-24T09:37:37;1.65;;;1.55;;
17382;SDS011;8809;51.892;8.384;2023-04-24T09:40:10;1.67;;;1.58;;
17382;SDS011;8809;51.892;8.384;2023-04-24T09:42:45;1.70;;;1.60;;
17382;SDS011;8809;51.892;8.384;2023-04-24T09:45:18;1.30;;;1.20;;
17382;SDS011;8809;51.892;8.384;2023-04-24T09:47:51;2.17;;;1.80;;
17382;SDS011;8809;51.892;8.384;2023-04-24T09:50:21;2.20;;;1.52;;
17382;SDS011;8809;51.892;8.384;2023-04-24T09:52:56;1.33;;;1.23;;
17382;SDS011;8809;51.892;8.384;2023-04-24T09:55:35;1.30;;;1.20;;
17382;SDS011;8809;51.892;8.384;2023-04-24T09:58:07;1.30;;;1.20;;
17382;SDS011;8809;51.892;8.384;2023-04-24T10:00:35;1.40;;;1.30;;
17382;SDS011;8809;51.892;8.384;2023-04-24T10:03:04;1.42;;;1.25;;
17382;SDS011;8809;51.892;8.384;2023-04-24T10:05:33;1.20;;;1.00;;
17382;SDS011;8809;51.892;8.384;2023-04-24T10:08:02;1.77;;;1.00;;
17382;SDS011;8809;51.892;8.384;2023-04-24T10:10:32;1.75;;;1.20;;
17382;SDS011;8809;51.892;8.384;2023-04-24T10:13:03;1.40;;;1.30;;
17382;SDS011;8809;51.892;8.384;2023-04-24T10:15:32;2.58;;;1.60;;
17382;SDS011;8809;51.892;8.384;2023-04-24T10:17:59;1.50;;;1.40;;
17382;SDS011;8809;51.892;8.384;2023-04-24T10:20:28;2.10;;;1.60;;
17382;SDS011;8809;51.892;8.384;2023-04-24T10:22:56;1.80;;;1.70;;
17382;SDS011;8809;51.892;8.384;2023-04-24T10:25:25;1.80;;;1.70;;
17382;SDS011;8809;51.892;8.384;2023-04-24T10:27:55;2.10;;;1.90;;
17382;SDS011;8809;51.892;8.384;2023-04-24T10:30:27;1.70;;;1.60;;
17382;SDS011;8809;51.892;8.384;2023-04-24T10:33:00;2.10;;;1.90;;
17382;SDS011;8809;51.892;8.384;2023-04-24T10:35:31;2.08;;;1.85;;
17382;SDS011;8809;51.892;8.384;2023-04-24T10:38:03;2.13;;;1.90;;
17382;SDS011;8809;51.892;8.384;2023-04-24T10:40:34;1.83;;;1.45;;
17382;SDS011;8809;51.892;8.384;2023-04-24T10:43:02;1.67;;;1.20;;
17382;SDS011;8809;51.892;8.384;2023-04-24T10:45:31;1.70;;;1.60;;
17382;SDS011;8809;51.892;8.384;2023-04-24T10:47:59;1.83;;;1.13;;
17382;SDS011;8809;51.892;8.384;2023-04-24T10:50:28;1.30;;;1.20;;
17382;SDS011;8809;51.892;8.384;2023-04-24T10:53:12;2.55;;;1.25;;
17382;SDS011;8809;51.892;8.384;2023-04-24T10:55:43;2.58;;;1.50;;
17382;SDS011;8809;51.892;8.384;2023-04-24T10:58:21;1.45;;;1.35;;
17382;SDS011;8809;51.892;8.384;2023-04-24T11:00:55;1.48;;;1.38;;
17382;SDS011;8809;51.892;8.384;2023-04-24T11:03:24;2.00;;;1.80;;
17382;SDS011;8809;51.892;8.384;2023-04-24T11:05:56;1.75;;;1.65;;
17382;SDS011;8809;51.892;8.384;2023-04-24T11:08:27;1.98;;;1.85;;
17382;SDS011;8809;51.892;8.384;2023-04-24T11:10:56;2.28;;;2.10;;
17382;SDS011;8809;51.892;8.384;2023-04-24T11:13:27;2.15;;;2.05;;
17382;SDS011;8809;51.892;8.384;2023-04-24T11:16:13;2.53;;;2.33;;
17382;SDS011;8809;51.892;8.384;2023-04-24T11:18:42;2.50;;;2.30;;
17382;SDS011;8809;51.892;8.384;2023-04-24T11:21:42;2.72;;;2.50;;
17382;SDS011;8809;51.892;8.384;2023-04-24T11:27:06;2.85;;;2.65;;
17382;SDS011;8809;51.892;8.384;2023-04-24T11:29:39;2.70;;;2.50;;
17382;SDS011;8809;51.892;8.384;2023-04-24T11:32:18;3.25;;;2.95;;
17382;SDS011;8809;51.892;8.384;2023-04-24T11:34:50;3.95;;;3.00;;
17382;SDS011;8809;51.892;8.384;2023-04-24T11:37:21;2.92;;;2.72;;
17382;SDS011;8809;51.892;8.384;2023-04-24T11:39:51;3.33;;;3.03;;
17382;SDS011;8809;51.892;8.384;2023-04-24T11:42:20;3.20;;;2.80;;
17382;SDS011;8809;51.892;8.384;2023-04-24T11:44:49;3.38;;;3.08;;
17382;SDS011;8809;51.892;8.384;2023-04-24T11:47:16;3.10;;;2.85;;
17382;SDS011;8809;51.892;8.384;2023-04-24T11:49:44;6.18;;;3.10;;
17382;SDS011;8809;51.892;8.384;2023-04-24T11:52:15;2.90;;;2.70;;
17382;SDS011;8809;51.892;8.384;2023-04-24T11:54:48;3.38;;;3.08;;
17382;SDS011;8809;51.892;8.384;2023-04-24T11:57:16;5.30;;;3.22;;
17382;SDS011;8809;51.892;8.384;2023-04-24T11:59:45;3.22;;;2.78;;
17382;SDS011;8809;51.892;8.384;2023-04-24T12:02:19;3.25;;;2.88;;
17382;SDS011;8809;51.892;8.384;2023-04-24T12:04:47;4.32;;;2.63;;
17382;SDS011;8809;51.892;8.384;2023-04-24T12:07:14;3.75;;;2.50;;
17382;SDS011;8809;51.892;8.384;2023-04-24T12:09:42;2.60;;;2.40;;
17382;SDS011;8809;51.892;8.384;2023-04-24T12:12:12;3.13;;;2.25;;
17382;SDS011;8809;51.892;8.384;2023-04-24T12:14:43;2.65;;;2.10;;
17382;SDS011;8809;51.892;8.384;2023-04-24T12:17:11;2.55;;;2.33;;
17382;SDS011;8809;51.892;8.384;2023-04-24T12:19:44;2.97;;;2.47;;
17382;SDS011;8809;51.892;8.384;2023-04-24T12:22:12;4.05;;;2.90;;
17382;SDS011;8809;51.892;8.384;2023-04-24T12:24:58;4.28;;;2.70;;
17382;SDS011;8809;51.892;8.384;2023-04-24T12:27:29;5.20;;;3.15;;
17382;SDS011;8809;51.892;8.384;2023-04-24T12:29:59;3.63;;;3.28;;
17382;SDS011;8809;51.892;8.384;2023-04-24T12:32:31;4.38;;;3.17;;
17382;SDS011;8809;51.892;8.384;2023-04-24T12:34:58;4.95;;;2.97;;
17382;SDS011;8809;51.892;8.384;2023-04-24T12:37:26;5.65;;;3.58;;
17382;SDS011;8809;51.892;8.384;2023-04-24T12:39:59;4.20;;;3.80;;
17382;SDS011;8809;51.892;8.384;2023-04-24T12:42:32;5.25;;;4.05;;
17382;SDS011;8809;51.892;8.384;2023-04-24T12:45:02;5.38;;;4.47;;
17382;SDS011;8809;51.892;8.384;2023-04-24T12:47:30;4.93;;;3.83;;
17382;SDS011;8809;51.892;8.384;2023-04-24T12:49:58;5.43;;;4.00;;
17382;SDS011;8809;51.892;8.384;2023-04-24T12:52:26;4.38;;;3.13;;
17382;SDS011;8809;51.892;8.384;2023-04-24T12:54:55;6.35;;;4.15;;
17382;SDS011;8809;51.892;8.384;2023-04-24T12:57:24;7.20;;;4.57;;
17382;SDS011;8809;51.892;8.384;2023-04-24T12:59:53;7.90;;;5.03;;
17382;SDS011;8809;51.892;8.384;2023-04-24T13:02:22;9.13;;;5.80;;
17382;SDS011;8809;51.892;8.384;2023-04-24T13:04:49;11.80;;;6.18;;
17382;SDS011;8809;51.892;8.384;2023-04-24T13:07:17;12.30;;;6.40;;
17382;SDS011;8809;51.892;8.384;2023-04-24T13:09:44;15.80;;;7.40;;
17382;SDS011;8809;51.892;8.384;2023-04-24T13:12:15;12.50;;;6.80;;
17382;SDS011;8809;51.892;8.384;2023-04-24T13:14:43;15.57;;;7.65;;
17382;SDS011;8809;51.892;8.384;2023-04-24T13:17:12;12.90;;;7.50;;
17382;SDS011;8809;51.892;8.384;2023-04-24T13:19:40;12.82;;;7.03;;
17382;SDS011;8809;51.892;8.384;2023-04-24T13:22:09;13.50;;;6.57;;
17382;SDS011;8809;51.892;8.384;2023-04-24T13:24:37;12.30;;;7.05;;
17382;SDS011;8809;51.892;8.384;2023-04-24T13:27:07;11.52;;;7.28;;
17382;SDS011;8809;51.892;8.384;2023-04-24T13:29:35;14.95;;;7.35;;
17382;SDS011;8809;51.892;8.384;2023-04-24T13:32:02;12.25;;;6.18;;
17382;SDS011;8809;51.892;8.384;2023-04-24T13:34:32;10.00;;;5.85;;
17382;SDS011;8809;51.892;8.384;2023-04-24T13:37:01;12.93;;;6.53;;
17382;SDS011;8809;51.892;8.384;2023-04-24T13:39:30;12.77;;;6.72;;
17382;SDS011;8809;51.892;8.384;2023-04-24T13:41:57;12.18;;;6.93;;
17382;SDS011;8809;51.892;8.384;2023-04-24T13:44:25;14.15;;;7.95;;
17382;SDS011;8809;51.892;8.384;2023-04-24T13:46:53;11.18;;;7.35;;
17382;SDS011;8809;51.892;8.384;2023-04-24T13:49:22;15.05;;;7.15;;
17382;SDS011;8809;51.892;8.384;2023-04-24T13:51:52;12.60;;;7.20;;
17382;SDS011;8809;51.892;8.384;2023-04-24T13:54:20;13.07;;;6.72;;
17382;SDS011;8809;51.892;8.384;2023-04-24T13:56:48;13.65;;;7.22;;
17382;SDS011;8809;51.892;8.384;2023-04-24T13:59:16;11.13;;;6.68;;
17382;SDS011;8809;51.892;8.384;2023-04-24T14:01:48;11.73;;;6.40;;
17382;SDS011;8809;51.892;8.384;2023-04-24T14:04:17;12.52;;;5.88;;
17382;SDS011;8809;51.892;8.384;2023-04-24T14:06:47;10.30;;;6.55;;
17382;SDS011;8809;51.892;8.384;2023-04-24T14:09:16;12.35;;;6.70;;
17382;SDS011;8809;51.892;8.384;2023-04-24T14:11:44;11.45;;;5.95;;
17382;SDS011;8809;51.892;8.384;2023-04-24T14:14:11;11.73;;;5.90;;
17382;SDS011;8809;51.892;8.384;2023-04-24T14:16:39;13.77;;;6.45;;
17382;SDS011;8809;51.892;8.384;2023-04-24T14:19:06;10.30;;;5.72;;
17382;SDS011;8809;51.892;8.384;2023-04-24T14:21:34;16.00;;;7.30;;
17382;SDS011;8809;51.892;8.384;2023-04-24T14:24:01;11.35;;;5.68;;
17382;SDS011;8809;51.892;8.384;2023-04-24T14:26:30;12.85;;;5.63;;
17382;SDS011;8809;51.892;8.384;2023-04-24T14:28:57;10.43;;;5.43;;
17382;SDS011;8809;51.892;8.384;2023-04-24T14:31:25;8.93;;;5.10;;
17382;SDS011;8809;51.892;8.384;2023-04-24T14:33:52;7.22;;;5.00;;
17382;SDS011;8809;51.892;8.384;2023-04-24T14:36:20;9.02;;;4.82;;
17382;SDS011;8809;51.892;8.384;2023-04-24T14:38:47;10.35;;;4.68;;
17382;SDS011;8809;51.892;8.384;2023-04-24T14:41:14;10.82;;;4.70;;
17382;SDS011;8809;51.892;8.384;2023-04-24T14:43:43;8.20;;;4.50;;
17382;SDS011;8809;51.892;8.384;2023-04-24T14:46:10;9.23;;;5.88;;
17382;SDS011;8809;51.892;8.384;2023-04-24T14:48:37;6.00;;;4.13;;
17382;SDS011;8809;51.892;8.384;2023-04-24T14:51:04;8.02;;;5.25;;
17382;SDS011;8809;51.892;8.384;2023-04-24T14:53:31;15.23;;;6.88;;
17382;SDS011;8809;51.892;8.384;2023-04-24T14:55:59;9.15;;;6.13;;
17382;SDS011;8809;51.892;8.384;2023-04-24T14:58:46;7.70;;;4.43;;
17382;SDS011;8809;51.892;8.384;2023-04-24T15:01:13;4.10;;;3.35;;
17382;SDS011;8809;51.892;8.384;2023-04-24T15:03:40;6.70;;;3.97;;
17382;SDS011;8809;51.892;8.384;2023-04-24T15:06:08;6.60;;;4.10;;
17382;SDS011;8809;51.892;8.384;2023-04-24T15:08:35;7.57;;;3.40;;
17382;SDS011;8809;51.892;8.384;2023-04-24T15:11:02;4.95;;;4.10;;
17382;SDS011;8809;51.892;8.384;2023-04-24T15:13:30;3.90;;;3.28;;
17382;SDS011;8809;51.892;8.384;2023-04-24T15:15:59;3.70;;;2.75;;
17382;SDS011;8809;51.892;8.384;2023-04-24T15:18:27;5.07;;;3.00;;
17382;SDS011;8809;51.892;8.384;2023-04-24T15:20:55;6.53;;;3.33;;
17382;SDS011;8809;51.892;8.384;2023-04-24T15:23:22;5.95;;;3.05;;
17382;SDS011;8809;51.892;8.384;2023-04-24T15:25:49;4.82;;;2.95;;